createdAt,value
2018-08-19T00:00:22.209Z,15.00
2018-08-19T00:02:52.829Z,14.70
2018-08-19T00:05:20.776Z,14.90
2018-08-19T00:07:48.996Z,14.53
2018-08-19T00:10:18.914Z,15.57
2018-08-19T00:12:47.689Z,15.60
2018-08-19T00:15:16.058Z,14.97
2018-08-19T00:17:44.273Z,15.27
2018-08-19T00:20:12.744Z,15.63
2018-08-19T00:22:40.750Z,14.77
2018-08-19T00:25:09.884Z,14.50
2018-08-19T00:27:38.607Z,14.67
2018-08-19T00:30:07.469Z,14.40
2018-08-19T00:32:35.337Z,15.97
2018-08-19T00:35:04.045Z,15.20
2018-08-19T00:37:31.891Z,15.00
2018-08-19T00:40:05.150Z,14.93
2018-08-19T00:42:33.119Z,14.73
2018-08-19T00:45:01.962Z,14.70
2018-08-19T00:47:30.854Z,14.90
2018-08-19T00:50:02.362Z,14.70
2018-08-19T00:52:30.330Z,14.97
2018-08-19T00:54:58.305Z,14.40
2018-08-19T00:57:26.257Z,14.37
2018-08-19T00:59:54.225Z,15.10
2018-08-19T01:02:22.152Z,14.17
2018-08-19T01:04:50.292Z,14.33
2018-08-19T01:07:19.173Z,14.20
2018-08-19T01:09:48.158Z,14.10
2018-08-19T01:12:16.097Z,14.57
2018-08-19T01:14:44.002Z,14.53
2018-08-19T01:17:11.926Z,14.30
2018-08-19T01:19:39.863Z,14.23
2018-08-19T01:22:07.725Z,14.53
2018-08-19T01:24:35.753Z,14.70
2018-08-19T01:27:03.741Z,14.37
2018-08-19T01:29:37.153Z,13.77
2018-08-19T01:32:10.946Z,14.53
2018-08-19T01:34:39.112Z,14.23
2018-08-19T01:37:07.092Z,13.93
2018-08-19T01:39:36.382Z,13.70
2018-08-19T01:42:05.585Z,14.47
2018-08-19T01:44:33.557Z,14.33
2018-08-19T01:47:01.463Z,15.30
2018-08-19T01:49:29.365Z,14.83
2018-08-19T01:51:57.252Z,14.50
2018-08-19T01:54:25.189Z,14.90
2018-08-19T01:56:57.350Z,15.70
2018-08-19T01:59:26.361Z,15.60
2018-08-19T02:01:56.805Z,16.50
2018-08-19T02:04:24.738Z,15.30
2018-08-19T02:06:52.948Z,16.23
2018-08-19T02:09:21.203Z,16.10
2018-08-19T02:11:55.320Z,15.90
2018-08-19T02:14:23.750Z,16.73
2018-08-19T02:16:52.503Z,15.70
2018-08-19T02:19:20.526Z,16.30
2018-08-19T02:24:18.003Z,15.50
2018-08-19T02:26:46.045Z,15.35
2018-08-19T02:29:25.080Z,14.60
2018-08-19T02:31:56.834Z,15.00
2018-08-19T02:34:30.121Z,14.37
2018-08-19T02:37:00.965Z,14.63
2018-08-19T02:39:28.868Z,14.97
2018-08-19T02:41:57.023Z,13.63
2018-08-19T02:44:25.262Z,14.87
2018-08-19T02:46:53.147Z,14.30
2018-08-19T02:49:21.062Z,14.17
2018-08-19T02:51:49.364Z,14.35
2018-08-19T02:54:17.714Z,14.47
2018-08-19T02:56:45.571Z,14.73
2018-08-19T02:59:13.733Z,15.87
2018-08-19T03:01:41.668Z,14.70
2018-08-19T03:04:09.581Z,14.90
2018-08-19T03:06:37.493Z,14.07
2018-08-19T03:09:06.451Z,14.40
2018-08-19T03:14:01.562Z,15.00
2018-08-19T03:18:56.661Z,14.20
2018-08-19T03:21:24.540Z,13.33
2018-08-19T03:23:53.695Z,14.73
2018-08-19T03:26:21.663Z,13.37
2018-08-19T03:28:49.857Z,13.40
2018-08-19T03:31:17.807Z,14.03
2018-08-19T03:36:18.475Z,13.80
2018-08-19T03:38:46.381Z,13.63
2018-08-19T03:41:14.258Z,13.03
2018-08-19T03:43:42.678Z,14.20
2018-08-19T03:46:17.840Z,15.50
2018-08-19T03:48:46.121Z,14.07
2018-08-19T03:51:14.413Z,13.70
2018-08-19T03:56:25.946Z,13.53
2018-08-19T03:58:57.963Z,13.83
2018-08-19T04:01:31.521Z,14.30
2018-08-19T04:03:59.464Z,13.90
2018-08-19T04:06:27.432Z,14.10
2018-08-19T04:08:55.442Z,13.80
2018-08-19T04:11:23.338Z,14.47
2018-08-19T04:13:51.278Z,14.60
2018-08-19T04:16:19.413Z,14.43
2018-08-19T04:18:47.497Z,14.30
2018-08-19T04:21:16.541Z,13.50
2018-08-19T04:26:13.644Z,13.05
2018-08-19T04:28:42.773Z,13.23
2018-08-19T04:31:16.303Z,13.45
2018-08-19T04:33:46.283Z,12.63
2018-08-19T04:36:15.485Z,13.35
2018-08-19T04:38:43.448Z,12.20
2018-08-19T04:43:39.231Z,12.70
2018-08-19T04:46:07.264Z,11.70
2018-08-19T04:48:35.349Z,12.45
2018-08-19T04:51:03.401Z,12.10
2018-08-19T04:53:31.429Z,13.30
2018-08-19T04:55:59.334Z,12.57
2018-08-19T04:58:28.125Z,11.90
2018-08-19T05:00:56.105Z,11.80
2018-08-19T05:03:24.010Z,11.70
2018-08-19T05:05:51.868Z,11.27
2018-08-19T05:08:19.864Z,11.07
2018-08-19T05:10:47.665Z,10.30
2018-08-19T05:13:15.616Z,11.00
2018-08-19T05:15:43.758Z,11.85
2018-08-19T05:18:11.906Z,10.90
2018-08-19T05:23:07.649Z,10.85
2018-08-19T05:25:45.176Z,11.00
2018-08-19T05:28:15.955Z,11.03
2018-08-19T05:30:43.978Z,10.85
2018-08-19T05:33:11.844Z,10.67
2018-08-19T05:35:39.739Z,11.10
2018-08-19T05:38:07.670Z,10.80
2018-08-19T05:40:37.749Z,11.40
2018-08-19T05:43:05.752Z,11.20
2018-08-19T06:00:23.668Z,10.70
2018-08-19T06:02:52.072Z,10.60
2018-08-19T06:05:20.014Z,10.13
2018-08-19T06:25:06.303Z,9.10
2018-08-19T06:27:39.611Z,9.00
2018-08-19T06:32:34.706Z,8.75
2018-08-19T06:42:24.143Z,9.50
2018-08-19T06:52:19.299Z,9.77
2018-08-19T06:57:14.361Z,9.20
2018-08-19T06:59:42.273Z,8.13
2018-08-19T07:04:51.672Z,8.37
2018-08-19T07:07:20.305Z,8.30
2018-08-19T13:20:05.031Z,3.13
2018-08-19T13:56:53.620Z,4.30
2018-08-19T14:11:39.605Z,4.10
2018-08-19T14:19:02.638Z,4.00
2018-08-19T17:13:30.324Z,5.25
2018-08-19T18:22:09.372Z,6.80
2018-08-19T18:24:37.278Z,7.90
2018-08-19T18:27:05.218Z,7.45
2018-08-19T18:32:00.168Z,7.30
2018-08-19T18:34:28.004Z,6.80
2018-08-19T19:26:37.492Z,9.13
2018-08-19T19:29:08.893Z,9.77
2018-08-19T19:31:36.813Z,9.07
2018-08-19T19:34:11.908Z,8.87
2018-08-19T19:36:40.865Z,9.40
2018-08-19T19:39:08.713Z,10.00
2018-08-19T19:41:36.613Z,10.13
2018-08-19T19:44:14.489Z,9.50
2018-08-19T19:46:42.398Z,10.23
2018-08-19T19:49:11.218Z,10.40
2018-08-19T19:51:39.117Z,11.00
2018-08-19T19:54:06.999Z,10.07
2018-08-19T19:56:34.929Z,10.77
2018-08-19T19:59:02.899Z,17.80
2018-08-19T20:01:30.814Z,21.47
2018-08-19T20:03:59.674Z,13.27
2018-08-19T20:06:27.578Z,13.00
2018-08-19T20:08:58.005Z,12.70
2018-08-19T20:11:27.077Z,14.37
2018-08-19T20:13:57.289Z,13.80
2018-08-19T20:16:25.293Z,13.90
2018-08-19T20:18:53.197Z,15.00
2018-08-19T20:21:27.225Z,15.17
2018-08-19T20:23:56.338Z,13.90
2018-08-19T20:26:24.744Z,15.53
2018-08-19T20:28:54.232Z,14.80
2018-08-19T20:31:22.254Z,13.70
2018-08-19T20:33:50.190Z,19.67
2018-08-19T20:36:18.162Z,15.67
2018-08-19T20:38:46.137Z,16.03
2018-08-19T20:41:14.120Z,15.07
2018-08-19T20:43:42.059Z,16.03
2018-08-19T20:46:10.009Z,18.80
2018-08-19T20:48:38.916Z,17.80
2018-08-19T20:51:07.772Z,15.50
2018-08-19T20:53:35.645Z,16.00
2018-08-19T20:56:03.573Z,18.90
2018-08-19T20:58:31.494Z,18.27
2018-08-19T21:01:00.375Z,16.93
2018-08-19T21:03:28.473Z,15.10
2018-08-19T21:05:56.406Z,15.77
2018-08-19T21:08:24.264Z,14.43
2018-08-19T21:10:52.149Z,14.90
2018-08-19T21:13:22.901Z,13.83
2018-08-19T21:15:53.527Z,15.07
2018-08-19T21:18:21.405Z,17.47
2018-08-19T21:20:49.447Z,15.73
2018-08-19T21:23:17.333Z,16.67
2018-08-19T21:25:51.074Z,14.33
2018-08-19T21:28:19.551Z,15.67
2018-08-19T21:30:47.508Z,14.33
2018-08-19T21:33:15.440Z,14.10
2018-08-19T21:35:48.953Z,14.20
2018-08-19T21:38:16.878Z,14.40
2018-08-19T21:40:44.817Z,14.10
2018-08-19T21:43:12.733Z,14.20
2018-08-19T21:45:40.721Z,14.90
2018-08-19T21:48:08.683Z,14.03
2018-08-19T21:50:36.560Z,14.47
2018-08-19T21:53:06.013Z,14.27
2018-08-19T21:55:35.242Z,13.90
2018-08-19T21:58:03.516Z,14.80
2018-08-19T22:00:33.469Z,14.27
2018-08-19T22:03:06.965Z,14.97
2018-08-19T22:05:35.896Z,15.00
2018-08-19T22:08:04.689Z,14.80
2018-08-19T22:10:33.488Z,15.47
2018-08-19T22:13:01.385Z,15.93
2018-08-19T22:15:34.889Z,16.80
2018-08-19T22:18:02.802Z,16.30
2018-08-19T22:20:30.750Z,16.70
2018-08-19T22:22:58.741Z,15.57
2018-08-19T22:25:26.722Z,16.90
2018-08-19T22:27:54.592Z,17.40
2018-08-19T22:30:24.634Z,16.60
2018-08-19T22:32:52.590Z,16.77
2018-08-19T22:35:20.539Z,18.03
2018-08-19T22:37:48.481Z,15.97
2018-08-19T22:40:17.472Z,16.50
2018-08-19T22:42:45.287Z,16.80
2018-08-19T22:45:13.191Z,17.60
2018-08-19T22:47:41.112Z,17.70
2018-08-19T22:50:09.029Z,17.80
2018-08-19T22:52:36.947Z,17.47
2018-08-19T22:57:31.993Z,18.30
2018-08-19T23:02:27.114Z,17.95
2018-08-19T23:57:19.915Z,17.40
